createdAt,value
2019-05-13T00:02:24.122Z,61.16
2019-05-13T00:04:53.199Z,60.58
2019-05-13T00:07:20.787Z,61.36
2019-05-13T00:09:48.262Z,62.39
2019-05-13T00:12:15.769Z,62.25
2019-05-13T00:14:43.447Z,62.43
2019-05-13T00:17:11.039Z,63.06
2019-05-13T00:19:38.494Z,64.32
2019-05-13T00:22:06.524Z,65.72
2019-05-13T00:24:34.196Z,66.66
2019-05-13T00:27:03.849Z,67.26
2019-05-13T00:29:31.125Z,67.20
2019-05-13T00:31:58.583Z,67.58
2019-05-13T00:34:25.988Z,68.11
2019-05-13T00:37:07.422Z,67.74
2019-05-13T00:39:24.581Z,66.85
2019-05-13T00:41:53.154Z,67.11
2019-05-13T00:44:20.694Z,67.11
2019-05-13T00:46:48.166Z,67.64
2019-05-13T00:49:15.573Z,68.39
2019-05-13T00:51:44.459Z,69.49
2019-05-13T00:54:13.309Z,70.19
2019-05-13T00:56:43.447Z,69.87
2019-05-13T00:59:10.538Z,69.57
2019-05-13T01:01:37.902Z,69.00
2019-05-13T01:04:05.329Z,68.44
2019-05-13T01:06:34.160Z,67.99
2019-05-13T01:09:04.168Z,68.13
2019-05-13T01:11:34.148Z,68.29
2019-05-13T01:14:01.059Z,67.68
2019-05-13T01:16:28.430Z,66.93
2019-05-13T01:18:55.836Z,66.89
2019-05-13T01:21:24.022Z,67.82
2019-05-13T01:23:54.215Z,67.96
2019-05-13T01:26:23.184Z,68.92
2019-05-13T01:28:50.340Z,69.85
2019-05-13T01:31:17.715Z,70.52
2019-05-13T01:33:45.162Z,71.46
2019-05-13T01:36:13.456Z,71.61
2019-05-13T01:38:43.383Z,71.67
2019-05-13T01:41:10.380Z,71.73
2019-05-13T01:43:37.848Z,71.48
2019-05-13T01:46:05.290Z,71.48
2019-05-13T01:48:33.296Z,71.61
2019-05-13T01:51:00.903Z,71.86
2019-05-13T01:53:28.344Z,72.20
2019-05-13T01:55:55.812Z,71.92
2019-05-13T01:58:23.730Z,71.72
2019-05-13T02:00:52.726Z,71.55
2019-05-13T02:03:20.522Z,71.62
2019-05-13T02:05:47.882Z,72.22
2019-05-13T02:08:15.321Z,72.66
2019-05-13T02:11:08.534Z,72.64
2019-05-13T02:13:35.959Z,72.21
2019-05-13T02:16:04.214Z,72.51
2019-05-13T02:18:34.218Z,72.43
2019-05-13T02:21:04.849Z,73.00
2019-05-13T02:23:30.813Z,72.52
2019-05-13T02:25:58.218Z,72.59
2019-05-13T02:28:25.640Z,73.30
2019-05-13T02:30:56.165Z,73.16
2019-05-13T02:33:23.215Z,73.15
2019-05-13T02:35:53.052Z,73.13
2019-05-13T02:38:26.314Z,73.97
2019-05-13T02:40:52.371Z,74.59
2019-05-13T02:43:22.718Z,72.80
2019-05-13T02:45:48.453Z,72.88
2019-05-13T02:48:15.895Z,73.18
2019-05-13T02:50:44.155Z,72.33
2019-05-13T02:53:13.725Z,70.87
2019-05-13T02:55:43.677Z,69.91
2019-05-13T02:58:12.461Z,69.60
2019-05-13T03:00:43.810Z,68.95
2019-05-13T03:03:12.629Z,68.37
2019-05-13T03:05:38.681Z,68.51
2019-05-13T03:08:06.091Z,67.80
2019-05-13T03:10:33.491Z,67.29
2019-05-13T03:13:03.590Z,67.83
2019-05-13T03:15:39.243Z,68.93
2019-05-13T03:18:08.591Z,68.99
2019-05-13T03:20:36.778Z,69.34
2019-05-13T03:23:04.216Z,69.58
2019-05-13T03:25:33.049Z,69.75
2019-05-13T03:28:03.097Z,69.68
2019-05-13T03:30:35.378Z,69.75
2019-05-13T03:33:09.093Z,69.18
2019-05-13T03:35:35.986Z,69.74
2019-05-13T03:37:59.277Z,67.90
2019-05-13T03:40:28.191Z,68.06
2019-05-13T03:42:58.559Z,68.64
2019-05-13T03:45:27.744Z,69.62
2019-05-13T03:47:56.993Z,69.77
2019-05-13T03:50:24.413Z,70.19
2019-05-13T03:52:52.557Z,70.06
2019-05-13T03:55:23.170Z,70.46
2019-05-13T03:57:53.266Z,70.56
2019-05-13T04:00:23.171Z,70.81
2019-05-13T04:02:52.152Z,70.65
2019-05-13T04:05:22.466Z,70.88
2019-05-13T04:07:52.022Z,70.90
2019-05-13T04:10:18.154Z,71.18
2019-05-13T04:12:45.709Z,70.41
2019-05-13T04:15:14.183Z,70.22
2019-05-13T04:17:42.786Z,69.65
2019-05-13T04:20:12.571Z,69.53
2019-05-13T04:22:42.548Z,69.27
2019-05-13T04:25:12.690Z,70.14
2019-05-13T04:27:42.866Z,69.34
2019-05-13T04:30:13.353Z,69.58
2019-05-13T04:32:39.904Z,68.96
2019-05-13T04:35:07.734Z,69.00
2019-05-13T04:37:35.293Z,69.27
2019-05-13T04:40:04.246Z,68.69
2019-05-13T04:42:33.340Z,67.69
2019-05-13T04:45:02.921Z,67.84
2019-05-13T04:47:33.262Z,67.70
2019-05-13T04:50:02.923Z,67.42
2019-05-13T04:52:32.696Z,67.51
2019-05-13T04:54:58.875Z,68.15
2019-05-13T04:57:26.252Z,68.40
2019-05-13T04:59:55.022Z,67.51
2019-05-13T05:02:50.163Z,66.52
2019-05-13T05:05:36.076Z,65.93
2019-05-13T05:08:48.031Z,66.18
2019-05-13T05:11:43.659Z,66.70
2019-05-13T05:14:24.280Z,67.07
2019-05-13T05:17:32.816Z,66.32
2019-05-13T05:20:25.004Z,64.87
2019-05-13T05:23:13.857Z,63.95
2019-05-13T05:25:54.982Z,62.74
2019-05-13T05:28:41.433Z,63.52
2019-05-13T05:31:53.349Z,64.19
2019-05-13T05:35:06.511Z,65.22
2019-05-13T05:38:26.124Z,65.33
2019-05-13T05:40:57.571Z,65.46
2019-05-13T05:43:27.737Z,65.36
2019-05-13T05:45:55.270Z,66.11
2019-05-13T05:48:24.714Z,66.62
2019-05-13T05:50:54.068Z,67.25
2019-05-13T05:53:23.929Z,67.78
2019-05-13T05:55:52.759Z,67.68
2019-05-13T05:58:23.064Z,67.87
2019-05-13T06:00:54.919Z,67.87
2019-05-13T06:03:25.972Z,67.88
2019-05-13T06:05:54.360Z,66.60
2019-05-13T06:08:22.318Z,66.55
2019-05-13T06:10:53.675Z,65.18
2019-05-13T06:13:21.434Z,64.92
2019-05-13T06:15:51.245Z,63.66
2019-05-13T06:18:18.591Z,62.54
2019-05-13T06:20:46.130Z,61.00
2019-05-13T06:23:13.677Z,60.29
2019-05-13T06:25:42.742Z,60.15
2019-05-13T06:28:12.388Z,59.64
2019-05-13T06:30:41.446Z,59.33
2019-05-13T06:33:11.993Z,60.03
2019-05-13T06:35:42.581Z,59.32
2019-05-13T06:38:08.759Z,60.28
2019-05-13T06:40:36.232Z,60.23
2019-05-13T06:43:03.806Z,60.36
2019-05-13T06:45:31.694Z,59.29
2019-05-13T06:47:59.243Z,58.19
2019-05-13T06:50:26.668Z,58.31
2019-05-13T06:52:54.192Z,58.15
2019-05-13T06:55:21.632Z,58.15
2019-05-13T06:57:51.525Z,56.61
2019-05-13T07:00:18.489Z,56.77
2019-05-13T07:02:45.892Z,56.12
2019-05-13T07:05:13.460Z,56.14
2019-05-13T07:07:42.374Z,56.56
2019-05-13T07:10:12.700Z,57.55
2019-05-13T07:12:41.176Z,57.04
2019-05-13T07:15:11.387Z,57.12
2019-05-13T07:17:38.436Z,57.53
2019-05-13T07:20:06.307Z,58.16
2019-05-13T07:22:33.858Z,59.08
2019-05-13T07:25:02.714Z,59.46
2019-05-13T07:27:31.833Z,59.62
2019-05-13T07:30:01.966Z,59.93
2019-05-13T07:32:31.338Z,60.10
2019-05-13T07:34:58.249Z,60.72
2019-05-13T07:37:25.826Z,60.28
2019-05-13T07:39:53.659Z,59.55
2019-05-13T07:42:22.239Z,60.47
2019-05-13T07:44:52.237Z,61.10
2019-05-13T07:47:19.188Z,61.03
2019-05-13T07:49:46.623Z,60.16
2019-05-13T07:52:14.080Z,59.77
2019-05-13T07:54:42.042Z,60.10
2019-05-13T07:57:12.046Z,59.86
2019-05-13T07:59:39.090Z,59.94
2019-05-13T08:02:06.581Z,60.04
2019-05-13T08:04:33.954Z,60.16
2019-05-13T08:07:02.234Z,60.71
2019-05-13T08:09:31.994Z,59.40
2019-05-13T08:12:06.350Z,59.25
2019-05-13T08:14:28.741Z,59.84
2019-05-13T08:16:56.266Z,59.88
2019-05-13T08:19:23.642Z,60.47
2019-05-13T08:21:51.491Z,60.85
2019-05-13T08:24:22.451Z,60.32
2019-05-13T08:26:50.670Z,61.23
2019-05-13T08:29:18.192Z,61.32
2019-05-13T08:31:45.620Z,60.58
2019-05-13T08:34:13.184Z,60.27
2019-05-13T08:36:42.702Z,60.86
2019-05-13T08:39:12.747Z,60.74
2019-05-13T08:41:42.185Z,61.37
2019-05-13T08:44:09.117Z,60.91
2019-05-13T08:46:36.578Z,61.21
2019-05-13T08:49:04.138Z,60.96
2019-05-13T08:51:34.658Z,61.01
2019-05-13T08:54:02.393Z,60.92
2019-05-13T08:56:32.495Z,61.13
2019-05-13T08:59:01.142Z,61.38
2019-05-13T09:01:28.932Z,61.26
2019-05-13T09:03:56.348Z,60.62
2019-05-13T09:06:24.012Z,59.83
2019-05-13T09:08:53.822Z,59.93
2019-05-13T09:11:22.208Z,59.62
2019-05-13T09:13:51.547Z,59.70
2019-05-13T09:16:21.280Z,59.11
2019-05-13T09:18:48.455Z,58.24
2019-05-13T09:21:15.964Z,57.74
2019-05-13T09:23:43.503Z,57.01
2019-05-13T09:26:11.941Z,55.45
2019-05-13T09:28:41.731Z,56.38
2019-05-13T09:31:08.933Z,56.37
2019-05-13T09:33:36.296Z,55.00
2019-05-13T09:36:03.960Z,55.75
2019-05-13T09:38:32.562Z,55.36
2019-05-13T09:41:01.874Z,55.16
2019-05-13T09:43:31.540Z,54.15
2019-05-13T09:46:01.447Z,53.67
2019-05-13T09:48:28.356Z,52.60
2019-05-13T09:50:55.863Z,52.23
2019-05-13T09:53:23.332Z,52.42
2019-05-13T09:55:52.128Z,50.98
2019-05-13T09:58:22.329Z,51.42
2019-05-13T10:00:52.158Z,50.54
2019-05-13T10:03:18.904Z,51.56
2019-05-13T10:05:46.472Z,52.27
2019-05-13T10:08:13.897Z,52.19
2019-05-13T10:10:42.414Z,51.81
2019-05-13T10:13:13.103Z,51.15
2019-05-13T10:15:42.008Z,50.57
2019-05-13T10:18:08.803Z,49.94
2019-05-13T10:20:48.552Z,50.53
2019-05-13T10:23:16.627Z,51.22
2019-05-13T10:25:45.870Z,50.22
2019-05-13T10:28:13.499Z,50.29
2019-05-13T10:30:43.819Z,49.65
2019-05-13T10:33:12.394Z,49.67
2019-05-13T10:35:43.019Z,49.29
2019-05-13T10:38:13.479Z,50.02
2019-05-13T10:40:43.068Z,50.03
2019-05-13T10:43:27.059Z,50.37
2019-05-13T10:45:41.138Z,50.00
2019-05-13T10:48:10.467Z,48.74
2019-05-13T10:50:37.840Z,46.95
2019-05-13T10:53:05.245Z,46.76
2019-05-13T10:55:32.660Z,47.98
2019-05-13T10:58:02.391Z,48.04
2019-05-13T11:00:54.769Z,48.27
2019-05-13T11:03:23.127Z,48.98
2019-05-13T11:05:52.591Z,49.33
2019-05-13T11:08:22.303Z,51.04
2019-05-13T11:10:52.485Z,51.74
2019-05-13T11:13:19.305Z,49.14
2019-05-13T11:15:46.922Z,49.92
2019-05-13T11:18:19.522Z,50.09
2019-05-13T11:20:44.183Z,50.85
2019-05-13T11:23:12.389Z,50.99
2019-05-13T11:25:41.631Z,50.07
2019-05-13T11:28:11.617Z,51.78
2019-05-13T11:30:38.656Z,52.68
2019-05-13T11:33:10.076Z,52.45
2019-05-13T11:35:35.522Z,51.75
2019-05-13T11:38:03.025Z,53.00
2019-05-13T11:40:31.769Z,52.85
2019-05-13T11:43:01.699Z,53.46
2019-05-13T11:45:28.622Z,54.17
2019-05-13T11:47:56.040Z,54.01
2019-05-13T11:50:23.612Z,54.59
2019-05-13T11:52:52.432Z,54.73
2019-05-13T11:55:22.944Z,54.02
2019-05-13T11:57:52.391Z,52.67
2019-05-13T12:00:52.771Z,51.85
2019-05-13T12:03:18.785Z,52.56
2019-05-13T12:05:46.246Z,51.04
2019-05-13T12:08:13.724Z,50.63
2019-05-13T12:10:43.983Z,48.61
2019-05-13T12:13:12.522Z,48.02
2019-05-13T12:15:46.799Z,47.42
2019-05-13T12:18:12.610Z,48.26
2019-05-13T12:20:39.066Z,47.74
2019-05-13T12:23:06.520Z,48.94
2019-05-13T12:25:34.026Z,48.77
2019-05-13T12:28:03.350Z,48.96
2019-05-13T12:30:33.837Z,49.36
2019-05-13T12:33:02.573Z,48.04
2019-05-13T12:35:32.266Z,46.43
2019-05-13T12:37:58.918Z,46.44
2019-05-13T12:40:26.480Z,46.93
2019-05-13T12:42:54.166Z,47.21
2019-05-13T12:45:22.490Z,47.67
2019-05-13T12:47:50.305Z,48.43
2019-05-13T12:50:23.660Z,48.58
2019-05-13T12:52:51.446Z,48.38
2019-05-13T12:55:18.655Z,48.20
2019-05-13T12:57:46.099Z,49.44
2019-05-13T13:00:13.954Z,50.51
2019-05-13T13:02:49.164Z,49.24
2019-05-13T13:05:19.579Z,49.85
2019-05-13T13:07:42.514Z,49.09
2019-05-13T13:10:14.612Z,50.20
2019-05-13T13:12:42.072Z,49.94
2019-05-13T13:15:32.978Z,50.15
2019-05-13T13:17:41.501Z,49.92
2019-05-13T13:20:10.881Z,50.23
2019-05-13T13:22:38.570Z,50.41
2019-05-13T13:25:07.159Z,50.38
2019-05-13T13:27:59.949Z,50.44
2019-05-13T13:30:08.401Z,48.74
2019-05-13T13:32:34.325Z,49.42
2019-05-13T13:35:03.639Z,51.40
2019-05-13T13:37:34.843Z,51.24
2019-05-13T13:40:03.398Z,51.50
2019-05-13T13:42:33.022Z,51.42
2019-05-13T13:44:59.151Z,49.86
2019-05-13T13:47:26.597Z,50.76
2019-05-13T13:49:54.024Z,50.95
2019-05-13T13:52:22.691Z,51.98
2019-05-13T13:54:58.936Z,52.86
2019-05-13T13:57:25.236Z,53.30
2019-05-13T14:00:16.144Z,52.99
2019-05-13T14:02:18.370Z,52.75
2019-05-13T14:04:45.831Z,52.71
2019-05-13T14:07:26.676Z,51.94
2019-05-13T14:09:42.786Z,52.90
2019-05-13T14:12:11.318Z,54.18
2019-05-13T14:14:41.268Z,54.55
2019-05-13T14:17:08.452Z,55.39
2019-05-13T14:19:35.920Z,54.75
2019-05-13T14:22:03.460Z,55.46
2019-05-13T14:24:33.132Z,55.34
2019-05-13T14:27:02.728Z,55.66
2019-05-13T14:29:38.590Z,56.64
2019-05-13T14:32:01.200Z,57.09
2019-05-13T14:34:28.280Z,55.79
2019-05-13T14:36:55.666Z,56.74
2019-05-13T14:39:23.110Z,55.23
2019-05-13T14:41:51.638Z,52.80
2019-05-13T14:44:21.240Z,53.62
2019-05-13T14:46:48.942Z,55.02
2019-05-13T14:49:16.366Z,55.73
2019-05-13T14:51:43.767Z,55.50
2019-05-13T14:54:11.159Z,55.33
2019-05-13T14:56:38.601Z,55.72
2019-05-13T14:59:06.072Z,55.09
2019-05-13T15:01:33.483Z,55.00
2019-05-13T15:04:02.784Z,54.44
2019-05-13T15:06:32.751Z,55.25
2019-05-13T15:09:01.789Z,56.70
2019-05-13T15:11:29.051Z,56.66
2019-05-13T15:13:56.468Z,57.25
2019-05-13T15:16:24.037Z,56.55
2019-05-13T15:18:52.524Z,55.73
2019-05-13T15:21:21.327Z,54.68
2019-05-13T15:23:51.549Z,56.09
2019-05-13T15:26:18.577Z,56.31
2019-05-13T15:28:46.025Z,57.11
2019-05-13T15:31:13.470Z,57.03
2019-05-13T15:33:41.619Z,57.71
2019-05-13T15:36:11.762Z,57.91
2019-05-13T15:38:41.231Z,58.12
2019-05-13T15:41:07.926Z,57.14
2019-05-13T15:43:35.344Z,56.81
2019-05-13T15:46:02.783Z,57.29
2019-05-13T15:48:31.563Z,57.59
2019-05-13T15:50:59.103Z,58.30
2019-05-13T15:53:26.562Z,58.71
2019-05-13T15:55:54.082Z,58.29
2019-05-13T15:58:37.744Z,57.26
2019-05-13T16:00:52.371Z,55.99
2019-05-13T16:03:20.228Z,57.01
2019-05-13T16:05:47.708Z,58.33
2019-05-13T16:08:15.118Z,58.88
2019-05-13T16:10:42.525Z,59.36
2019-05-13T16:13:11.848Z,59.69
2019-05-13T16:15:41.550Z,58.28
2019-05-13T16:18:08.616Z,57.33
2019-05-13T16:20:36.458Z,57.16
2019-05-13T16:23:03.993Z,57.51
2019-05-13T16:25:31.918Z,57.95
2019-05-13T16:28:01.319Z,57.63
2019-05-13T16:30:30.902Z,57.38
2019-05-13T16:32:58.231Z,57.19
2019-05-13T16:35:25.652Z,57.20
2019-05-13T16:37:53.072Z,57.17
2019-05-13T16:40:22.291Z,57.69
2019-05-13T16:42:51.903Z,58.64
2019-05-13T16:45:21.734Z,58.95
2019-05-13T16:47:58.982Z,59.58
2019-05-13T16:50:18.536Z,59.68
2019-05-13T16:52:45.930Z,60.13
2019-05-13T16:55:13.943Z,60.07
2019-05-13T16:57:42.387Z,59.98
2019-05-13T17:00:12.194Z,60.73
2019-05-13T17:02:42.214Z,61.39
2019-05-13T17:05:11.837Z,61.86
2019-05-13T17:07:38.914Z,61.89
2019-05-13T17:10:07.135Z,61.89
2019-05-13T17:12:34.552Z,61.05
2019-05-13T17:15:02.193Z,61.15
2019-05-13T17:17:31.805Z,61.12
2019-05-13T17:19:59.231Z,61.55
2019-05-13T17:22:26.691Z,62.16
2019-05-13T17:24:54.121Z,62.56
2019-05-13T17:27:22.198Z,62.94
2019-05-13T17:29:51.630Z,62.76
2019-05-13T17:32:18.933Z,62.69
2019-05-13T17:34:46.356Z,63.26
2019-05-13T17:37:13.810Z,63.36
2019-05-13T17:39:41.604Z,64.19
2019-05-13T17:42:09.205Z,64.42
2019-05-13T17:44:36.655Z,64.89
2019-05-13T17:47:04.045Z,64.66
2019-05-13T17:49:31.996Z,64.36
2019-05-13T17:52:02.126Z,64.18
2019-05-13T17:54:31.599Z,64.41
2019-05-13T17:56:58.519Z,64.83
2019-05-13T17:59:25.931Z,65.04
2019-05-13T18:01:53.371Z,64.79
2019-05-13T18:04:22.650Z,64.67
2019-05-13T18:06:52.168Z,64.08
2019-05-13T18:09:19.442Z,63.66
2019-05-13T18:11:46.861Z,63.67
2019-05-13T18:14:14.248Z,63.71
2019-05-13T18:16:42.179Z,64.21
2019-05-13T18:19:11.918Z,64.13
2019-05-13T18:21:39.179Z,64.45
2019-05-13T18:24:06.687Z,64.53
2019-05-13T18:26:34.664Z,65.20
2019-05-13T18:29:02.103Z,64.99
2019-05-13T18:31:29.530Z,65.03
2019-05-13T18:33:56.908Z,65.03
2019-05-13T18:36:24.375Z,65.18
2019-05-13T18:38:51.824Z,64.95
2019-05-13T18:41:21.213Z,65.48
2019-05-13T18:43:48.540Z,65.90
2019-05-13T18:46:16.064Z,66.03
2019-05-13T18:48:58.211Z,66.04
2019-05-13T18:51:12.816Z,66.10
2019-05-13T18:53:41.434Z,66.51
2019-05-13T18:56:09.284Z,67.19
2019-05-13T18:58:36.837Z,67.53
2019-05-13T19:01:04.199Z,67.85
2019-05-13T19:03:32.388Z,68.19
2019-05-13T19:06:00.042Z,68.51
2019-05-13T19:08:27.432Z,69.49
2019-05-13T19:10:54.859Z,69.63
2019-05-13T19:13:22.273Z,69.73
2019-05-13T19:15:51.733Z,69.77
2019-05-13T19:18:21.288Z,69.18
2019-05-13T19:20:48.548Z,68.92
2019-05-13T19:23:15.968Z,69.12
2019-05-13T19:25:43.417Z,69.54
2019-05-13T19:28:11.990Z,69.27
2019-05-13T19:30:41.166Z,69.44
2019-05-13T19:33:08.760Z,69.38
2019-05-13T19:35:36.169Z,68.90
2019-05-13T19:38:03.562Z,68.23
2019-05-13T19:40:31.357Z,67.28
2019-05-13T19:42:58.932Z,67.61
2019-05-13T19:45:26.366Z,67.81
2019-05-13T19:47:53.828Z,67.45
2019-05-13T19:50:22.353Z,66.90
2019-05-13T19:52:51.899Z,66.42
2019-05-13T19:55:19.552Z,66.27
2019-05-13T19:57:46.962Z,66.98
2019-05-13T20:00:15.148Z,66.67
2019-05-13T20:02:42.518Z,65.28
2019-05-13T20:05:10.007Z,64.88
2019-05-13T20:07:37.431Z,64.72
2019-05-13T20:10:05.297Z,63.91
2019-05-13T20:12:32.754Z,63.58
2019-05-13T20:15:01.408Z,62.60
2019-05-13T20:17:29.243Z,62.32
2019-05-13T20:19:56.597Z,62.67
2019-05-13T20:22:23.998Z,62.86
2019-05-13T20:24:51.526Z,62.95
2019-05-13T20:27:20.941Z,62.67
2019-05-13T20:29:48.280Z,62.25
2019-05-13T20:32:15.709Z,62.00
2019-05-13T20:34:43.145Z,61.85
2019-05-13T20:37:12.471Z,61.20
2019-05-13T20:39:42.283Z,61.62
2019-05-13T20:42:09.147Z,60.95
2019-05-13T20:44:36.515Z,60.61
2019-05-13T20:47:04.040Z,60.42
2019-05-13T20:49:31.500Z,60.90
2019-05-13T20:52:01.011Z,61.24
2019-05-13T20:54:28.527Z,61.74
2019-05-13T20:56:55.998Z,61.81
2019-05-13T20:59:23.453Z,62.11
2019-05-13T21:01:51.238Z,62.38
2019-05-13T21:04:21.392Z,63.21
2019-05-13T21:06:48.361Z,64.01
2019-05-13T21:09:17.152Z,64.54
2019-05-13T21:11:45.027Z,65.42
2019-05-13T21:14:12.402Z,65.98
2019-05-13T21:16:41.648Z,66.61
2019-05-13T21:19:09.093Z,67.50
2019-05-13T21:21:36.539Z,67.53
2019-05-13T21:24:04.088Z,67.68
2019-05-13T21:26:31.588Z,67.77
2019-05-13T21:28:59.022Z,68.05
2019-05-13T21:31:26.434Z,68.36
2019-05-13T21:33:53.871Z,68.60
2019-05-13T21:36:21.665Z,69.71
2019-05-13T21:38:49.418Z,70.80
2019-05-13T21:41:16.895Z,71.26
2019-05-13T21:43:44.248Z,71.47
2019-05-13T21:46:12.138Z,71.33
2019-05-13T21:48:41.651Z,71.65
2019-05-13T21:51:13.226Z,72.32
2019-05-13T21:53:38.424Z,72.34
2019-05-13T21:56:05.963Z,72.72
2019-05-13T21:58:33.314Z,72.91
2019-05-13T22:01:01.854Z,73.42
2019-05-13T22:03:33.229Z,73.56
2019-05-13T22:05:58.629Z,73.89
2019-05-13T22:08:26.047Z,75.69
2019-05-13T22:10:53.667Z,77.28
2019-05-13T22:13:21.087Z,77.86
2019-05-13T22:15:48.444Z,77.84
2019-05-13T22:18:15.864Z,78.13
2019-05-13T22:20:49.732Z,78.75
2019-05-13T22:23:12.699Z,78.92
2019-05-13T22:25:43.469Z,79.33
2019-05-13T22:28:11.791Z,79.55
2019-05-13T22:30:41.256Z,79.54
2019-05-13T22:33:08.761Z,79.89
2019-05-13T22:35:36.165Z,79.89
2019-05-13T22:38:03.546Z,79.74
2019-05-13T22:40:32.253Z,79.56
2019-05-13T22:42:59.879Z,79.91
2019-05-13T22:45:27.288Z,80.12
2019-05-13T22:47:54.686Z,79.60
2019-05-13T22:50:22.117Z,79.79
2019-05-13T22:52:49.562Z,79.23
2019-05-13T22:55:16.906Z,79.12
2019-05-13T22:57:44.331Z,79.26
2019-05-13T23:00:12.186Z,78.59
2019-05-13T23:02:42.093Z,78.27
2019-05-13T23:05:11.222Z,78.35
2019-05-13T23:07:38.523Z,78.44
2019-05-13T23:10:06.133Z,77.47
2019-05-13T23:12:33.590Z,77.15
2019-05-13T23:15:01.387Z,77.65
2019-05-13T23:17:28.870Z,78.44
2019-05-13T23:19:56.283Z,78.47
2019-05-13T23:22:23.688Z,78.65
2019-05-13T23:24:51.035Z,79.13
2019-05-13T23:27:18.469Z,79.01
2019-05-13T23:29:46.010Z,79.38
2019-05-13T23:32:13.529Z,79.93
2019-05-13T23:34:42.346Z,80.18
2019-05-13T23:37:11.354Z,79.07
2019-05-13T23:39:38.903Z,78.09
2019-05-13T23:42:06.341Z,77.08
2019-05-13T23:44:33.756Z,77.34
2019-05-13T23:47:01.221Z,77.75
2019-05-13T23:49:28.597Z,78.76
2019-05-13T23:51:56.025Z,79.68
2019-05-13T23:54:23.451Z,80.18
2019-05-13T23:56:50.799Z,80.59
2019-05-13T23:59:18.216Z,80.84
